Time;durP1;ratioP1;P1;durP2;ratioP2;P2;SDS_P1;SDS_P2;PMS_P1;PMS_P2;Temp;Humidity;BMP_temperature;BMP_pressure;BME280_temperature;BME280_humidity;BME280_pressure;Samples;Min_cycle;Max_cycle;Signal;HPM_P1;HPM_P2
2023/04/17 00:00:46;;;;;;;26.98;18.63;;;9.70;99.90;;;;;;5007915;28;20046;-69
2023/04/17 00:03:12;;;;;;;29.55;18.23;;;9.80;99.90;;;;;;5011109;28;20028;-68
2023/04/17 00:05:38;;;;;;;28.73;18.08;;;9.70;99.90;;;;;;5007887;28;20030;-68
2023/04/17 00:08:04;;;;;;;29.48;19.25;;;9.80;99.90;;;;;;5009716;28;20022;-69
2023/04/17 00:10:30;;;;;;;32.83;19.38;;;9.70;99.90;;;;;;5007499;28;20076;-68
2023/04/17 00:12:56;;;;;;;27.67;18.30;;;9.70;99.90;;;;;;5037919;28;20108;-69
2023/04/17 00:15:22;;;;;;;30.58;18.90;;;9.60;99.90;;;;;;5009487;28;20026;-68
2023/04/17 00:17:47;;;;;;;29.60;19.20;;;9.70;99.90;;;;;;5007235;28;20655;-68
2023/04/17 00:20:13;;;;;;;28.58;19.98;;;9.60;99.90;;;;;;5008503;28;20044;-69
2023/04/17 00:22:39;;;;;;;29.73;19.55;;;9.60;99.90;;;;;;5011874;28;20083;-69
2023/04/17 00:25:06;;;;;;;28.75;19.20;;;9.60;99.90;;;;;;5009490;28;20030;-69
2023/04/17 00:27:31;;;;;;;32.45;19.13;;;9.60;99.90;;;;;;5012420;28;20022;-68
2023/04/17 00:29:57;;;;;;;28.52;18.30;;;9.50;99.90;;;;;;5008041;28;20033;-70
2023/04/17 00:32:23;;;;;;;28.10;19.65;;;9.50;99.90;;;;;;5038702;28;20038;-68
2023/04/17 00:34:51;;;;;;;31.63;19.90;;;9.50;99.90;;;;;;5011911;28;20462;-68
2023/04/17 00:37:17;;;;;;;30.98;19.75;;;9.50;99.90;;;;;;5005684;28;20026;-69
2023/04/17 00:39:43;;;;;;;28.67;19.42;;;9.60;99.90;;;;;;5008059;28;20117;-68
2023/04/17 00:42:09;;;;;;;30.15;18.38;;;9.60;99.90;;;;;;5010543;28;20057;-68
2023/04/17 00:44:35;;;;;;;29.55;19.58;;;9.50;99.90;;;;;;5010279;28;20101;-68
2023/04/17 00:47:01;;;;;;;30.00;19.05;;;9.60;99.90;;;;;;5014156;28;20030;-69
2023/04/17 00:49:28;;;;;;;30.05;19.15;;;9.50;99.90;;;;;;5012297;28;20844;-72
2023/04/17 00:51:54;;;;;;;32.67;18.75;;;9.60;99.90;;;;;;5013635;28;20671;-68
2023/04/17 00:54:23;;;;;;;35.35;20.38;;;9.50;99.90;;;;;;5014359;28;20548;-69
2023/04/17 00:56:49;;;;;;;28.63;19.38;;;9.50;99.90;;;;;;5012863;28;20128;-68
2023/04/17 00:59:16;;;;;;;27.92;18.58;;;9.50;99.90;;;;;;5014534;28;20045;-68
2023/04/17 01:01:42;;;;;;;34.17;20.35;;;9.50;99.90;;;;;;5014021;28;20919;-68
2023/04/17 01:04:11;;;;;;;33.55;19.95;;;9.50;99.90;;;;;;5014251;28;20148;-69
2023/04/17 01:06:37;;;;;;;32.60;21.10;;;9.50;99.90;;;;;;5009118;28;20030;-68
2023/04/17 01:09:03;;;;;;;36.25;21.10;;;9.40;99.90;;;;;;5013410;28;20041;-70
2023/04/17 01:11:29;;;;;;;35.92;22.40;;;9.30;99.90;;;;;;5012435;28;20026;-70
2023/04/17 01:13:55;;;;;;;33.83;20.05;;;9.30;99.90;;;;;;5010013;28;20052;-70
2023/04/17 01:16:20;;;;;;;35.08;21.38;;;9.20;99.90;;;;;;5012876;28;20486;-68
2023/04/17 01:18:47;;;;;;;37.22;21.75;;;9.30;99.90;;;;;;5013964;28;20025;-67
2023/04/17 01:21:13;;;;;;;32.80;20.52;;;9.30;99.90;;;;;;5011653;28;20040;-68
2023/04/17 01:23:45;;;;;;;37.80;21.05;;;9.30;99.90;;;;;;5012870;28;20030;-68
2023/04/17 01:26:16;;;;;;;32.67;19.80;;;9.30;99.90;;;;;;5014566;28;20025;-68
2023/04/17 01:28:42;;;;;;;30.83;19.45;;;9.30;99.90;;;;;;5014171;28;20030;-70
2023/04/17 01:31:13;;;;;;;30.67;19.13;;;9.30;99.90;;;;;;5009898;28;20092;-70
2023/04/17 01:33:38;;;;;;;30.02;20.38;;;9.30;99.90;;;;;;4996037;28;20096;-71
2023/04/17 01:36:04;;;;;;;31.40;20.25;;;9.30;99.90;;;;;;5013565;28;20453;-69
2023/04/17 01:38:31;;;;;;;29.67;18.90;;;9.30;99.90;;;;;;5012307;28;20148;-69
2023/04/17 01:40:57;;;;;;;29.45;19.27;;;9.30;99.90;;;;;;5011581;28;20044;-69
2023/04/17 01:43:22;;;;;;;31.20;19.58;;;9.30;99.90;;;;;;5013118;28;20026;-69
2023/04/17 01:45:48;;;;;;;31.98;19.33;;;9.30;99.90;;;;;;5015989;28;20514;-68
2023/04/17 01:48:14;;;;;;;34.33;21.23;;;9.30;99.90;;;;;;5015903;28;20026;-69
2023/04/17 01:50:40;;;;;;;32.30;20.55;;;9.30;99.90;;;;;;5013366;28;20042;-69
2023/04/17 01:53:06;;;;;;;32.85;19.13;;;9.30;99.90;;;;;;5012491;28;20052;-68
2023/04/17 01:55:31;;;;;;;35.00;19.60;;;9.30;99.90;;;;;;5014326;28;20068;-69
2023/04/17 01:57:57;;;;;;;33.08;20.90;;;9.30;99.90;;;;;;5017862;28;20037;-68
2023/04/17 02:00:23;;;;;;;29.20;18.98;;;9.30;99.90;;;;;;5020509;28;20036;-70
2023/04/17 02:02:48;;;;;;;32.70;19.60;;;9.30;99.90;;;;;;5016152;28;20075;-72
2023/04/17 02:05:14;;;;;;;30.83;20.80;;;9.30;99.90;;;;;;5018943;28;20029;-68
2023/04/17 02:07:40;;;;;;;29.55;19.55;;;9.30;99.90;;;;;;5010450;28;20040;-68
2023/04/17 02:10:06;;;;;;;33.85;19.48;;;9.30;99.90;;;;;;5018208;28;20033;-69
2023/04/17 02:12:32;;;;;;;31.65;20.15;;;9.30;99.90;;;;;;5015390;28;20033;-69
2023/04/17 02:14:59;;;;;;;34.40;21.02;;;9.30;99.90;;;;;;5019421;28;20064;-68
2023/04/17 02:17:26;;;;;;;35.22;21.30;;;9.20;99.90;;;;;;5017915;28;20104;-74
2023/04/17 02:19:51;;;;;;;31.60;20.23;;;9.20;99.90;;;;;;5015654;28;20121;-69
2023/04/17 02:22:17;;;;;;;35.70;20.92;;;9.20;99.90;;;;;;5015829;28;20488;-68
2023/04/17 02:24:43;;;;;;;33.25;21.27;;;9.20;99.90;;;;;;5015794;28;20501;-68
2023/04/17 02:27:09;;;;;;;32.28;20.70;;;9.20;99.90;;;;;;5018118;28;20028;-68
2023/04/17 02:29:35;;;;;;;32.50;21.55;;;9.20;99.90;;;;;;5016107;28;20033;-69
2023/04/17 02:32:01;;;;;;;36.47;21.85;;;9.20;99.90;;;;;;5032491;28;20501;-68
2023/04/17 02:34:26;;;;;;;38.15;20.73;;;9.10;99.90;;;;;;5016929;28;20029;-68
2023/04/17 02:36:52;;;;;;;33.30;20.67;;;9.20;99.90;;;;;;5002747;28;20061;-68
2023/04/17 02:39:20;;;;;;;35.65;20.52;;;9.10;99.90;;;;;;5017342;28;20184;-69
2023/04/17 02:41:46;;;;;;;29.45;20.15;;;9.10;99.90;;;;;;5019725;28;20029;-69
2023/04/17 02:44:11;;;;;;;33.33;20.48;;;9.10;99.90;;;;;;5000763;28;20420;-68
2023/04/17 02:46:37;;;;;;;35.55;21.55;;;9.10;99.90;;;;;;5031077;28;20558;-71
2023/04/17 02:49:03;;;;;;;35.70;22.05;;;9.10;99.90;;;;;;5033350;28;20037;-73
2023/04/17 02:51:28;;;;;;;33.67;21.30;;;9.10;99.90;;;;;;5027755;28;20083;-70
2023/04/17 02:53:54;;;;;;;35.25;22.13;;;9.10;99.90;;;;;;5030356;28;20141;-72
2023/04/17 02:56:20;;;;;;;40.22;22.67;;;9.10;99.90;;;;;;5016113;28;20049;-69
2023/04/17 02:58:46;;;;;;;37.35;22.10;;;9.10;99.90;;;;;;5016394;28;20041;-69
2023/04/17 03:01:14;;;;;;;34.80;22.00;;;9.10;99.90;;;;;;5019865;28;20029;-69
2023/04/17 03:03:39;;;;;;;34.50;22.20;;;9.10;99.90;;;;;;5013385;28;20098;-69
2023/04/17 03:06:05;;;;;;;34.35;21.35;;;9.10;99.90;;;;;;5014084;28;20505;-67
2023/04/17 03:08:34;;;;;;;33.92;21.80;;;9.10;99.90;;;;;;5014046;28;20087;-69
2023/04/17 03:11:01;;;;;;;38.38;22.33;;;9.10;99.90;;;;;;5016472;28;20740;-68
2023/04/17 03:13:27;;;;;;;34.88;21.50;;;9.10;99.90;;;;;;5016317;28;20076;-69
2023/04/17 03:15:53;;;;;;;34.35;22.15;;;9.00;99.90;;;;;;5013556;28;21017;-72
2023/04/17 03:18:19;;;;;;;36.60;22.65;;;9.10;99.90;;;;;;5014453;28;20046;-70
2023/04/17 03:20:45;;;;;;;37.80;22.38;;;9.10;99.90;;;;;;5014259;28;20026;-68
2023/04/17 03:23:10;;;;;;;35.10;21.88;;;9.00;99.90;;;;;;5015119;28;20028;-68
2023/04/17 03:25:37;;;;;;;38.47;23.67;;;9.10;99.90;;;;;;5017520;28;20033;-67
2023/04/17 03:28:02;;;;;;;34.47;22.63;;;9.00;99.90;;;;;;5047023;28;20029;-68
2023/04/17 03:30:28;;;;;;;40.40;23.85;;;9.00;99.90;;;;;;5016549;28;20113;-68
2023/04/17 03:32:54;;;;;;;38.80;23.25;;;9.00;99.90;;;;;;5014670;28;20034;-69
2023/04/17 03:35:20;;;;;;;37.75;24.27;;;9.00;99.90;;;;;;5015369;28;20406;-71
2023/04/17 03:37:46;;;;;;;38.33;24.25;;;9.00;99.90;;;;;;5017742;28;20520;-69
2023/04/17 03:40:12;;;;;;;37.83;23.50;;;9.00;99.90;;;;;;5016110;28;20048;-67
2023/04/17 03:42:38;;;;;;;40.17;24.00;;;9.00;99.90;;;;;;5016034;28;20030;-68
2023/04/17 03:45:04;;;;;;;37.65;22.98;;;9.00;99.90;;;;;;5016022;28;20796;-69
2023/04/17 03:47:30;;;;;;;35.90;22.98;;;9.00;99.90;;;;;;5014530;28;20030;-69
2023/04/17 03:49:55;;;;;;;40.30;24.60;;;9.00;99.90;;;;;;5015479;28;20038;-69
2023/04/17 03:52:21;;;;;;;38.97;25.23;;;8.90;99.90;;;;;;5016555;28;20079;-68
2023/04/17 03:54:47;;;;;;;41.42;24.25;;;9.00;99.90;;;;;;5015202;28;20034;-67
2023/04/17 03:57:13;;;;;;;38.45;24.83;;;9.00;99.90;;;;;;5013905;28;20092;-67
2023/04/17 03:59:39;;;;;;;40.97;24.83;;;8.90;99.90;;;;;;5014039;28;20125;-69
2023/04/17 04:02:05;;;;;;;44.75;26.83;;;8.90;99.90;;;;;;5011007;28;20128;-68
2023/04/17 04:04:30;;;;;;;47.67;26.60;;;8.90;99.90;;;;;;4996495;28;20037;-68
2023/04/17 04:06:56;;;;;;;42.65;26.70;;;8.90;99.90;;;;;;5020818;28;20030;-67
2023/04/17 04:09:23;;;;;;;44.90;26.25;;;8.80;99.90;;;;;;5019116;28;20041;-67
2023/04/17 04:11:49;;;;;;;40.33;26.23;;;8.90;99.90;;;;;;5013736;28;20061;-70
2023/04/17 04:14:15;;;;;;;38.55;26.33;;;8.80;99.90;;;;;;5015381;28;20061;-70
2023/04/17 04:16:41;;;;;;;42.05;27.25;;;8.90;99.90;;;;;;5009586;28;20171;-68
2023/04/17 04:19:09;;;;;;;41.90;25.58;;;8.80;99.90;;;;;;5014841;28;20100;-68
2023/04/17 04:21:36;;;;;;;43.42;27.77;;;8.80;99.90;;;;;;5011917;28;20033;-68
2023/04/17 04:24:02;;;;;;;44.47;27.40;;;8.80;99.90;;;;;;5014931;28;20081;-68
2023/04/17 04:26:27;;;;;;;40.15;26.85;;;8.90;99.90;;;;;;5016021;28;20116;-68
2023/04/17 04:28:53;;;;;;;45.85;28.42;;;8.90;99.90;;;;;;5016903;28;20030;-68
2023/04/17 04:31:19;;;;;;;39.20;25.50;;;8.80;99.90;;;;;;5006196;28;20041;-68
2023/04/17 04:33:45;;;;;;;40.72;26.88;;;8.90;99.90;;;;;;5011339;28;20034;-69
2023/04/17 04:36:12;;;;;;;42.88;27.80;;;8.80;99.90;;;;;;5015011;28;20057;-68
2023/04/17 04:38:39;;;;;;;42.92;27.92;;;8.90;99.90;;;;;;5012619;28;20037;-67
2023/04/17 04:41:09;;;;;;;44.75;28.90;;;8.90;99.90;;;;;;5012230;28;20026;-70
2023/04/17 04:43:35;;;;;;;46.90;27.20;;;8.90;99.90;;;;;;5010814;28;20022;-70
2023/04/17 04:46:02;;;;;;;41.35;26.95;;;8.90;99.90;;;;;;5007720;28;20087;-74
2023/04/17 04:48:28;;;;;;;42.47;27.23;;;8.80;99.90;;;;;;5012601;28;20123;-69
2023/04/17 04:50:54;;;;;;;44.75;26.83;;;8.90;99.90;;;;;;5014435;28;20068;-69
2023/04/17 04:53:20;;;;;;;39.53;25.30;;;8.80;99.90;;;;;;5013083;28;20037;-69
2023/04/17 04:55:47;;;;;;;43.47;27.05;;;9.80;99.90;;;;;;5011507;28;20025;-71
2023/04/17 04:58:12;;;;;;;47.40;28.05;;;9.50;99.90;;;;;;5013336;28;20074;-70
2023/04/17 05:00:38;;;;;;;46.33;27.77;;;9.30;99.90;;;;;;5012041;28;20144;-70
2023/04/17 05:03:05;;;;;;;43.50;28.05;;;9.10;99.90;;;;;;5012376;28;20033;-70
2023/04/17 05:05:31;;;;;;;42.22;27.65;;;9.10;99.90;;;;;;5012306;28;20076;-72
2023/04/17 05:07:57;;;;;;;44.47;27.08;;;9.00;99.90;;;;;;5008155;28;20433;-69
2023/04/17 05:10:22;;;;;;;46.72;28.27;;;9.00;99.90;;;;;;5011999;28;20026;-69
2023/04/17 05:12:48;;;;;;;44.55;27.45;;;9.00;99.90;;;;;;5008120;28;20033;-70
2023/04/17 05:15:14;;;;;;;49.78;27.70;;;9.00;99.90;;;;;;4989454;28;20164;-71
2023/04/17 05:17:40;;;;;;;49.25;28.25;;;9.00;99.90;;;;;;5011687;28;20034;-71
2023/04/17 05:20:08;;;;;;;44.67;27.92;;;9.00;99.90;;;;;;4991785;28;20394;-71
2023/04/17 05:22:34;;;;;;;52.33;28.77;;;9.00;99.90;;;;;;5036455;28;20498;-72
2023/04/17 05:25:00;;;;;;;44.20;27.88;;;9.00;99.90;;;;;;5005367;28;20037;-71
2023/04/17 05:27:25;;;;;;;44.35;27.75;;;9.10;99.90;;;;;;5014096;28;20021;-71
2023/04/17 05:29:51;;;;;;;42.80;27.42;;;9.10;99.90;;;;;;5013573;28;20092;-69
2023/04/17 05:32:20;;;;;;;44.72;28.08;;;9.10;99.90;;;;;;5050692;28;20063;-72
2023/04/17 05:34:46;;;;;;;45.63;28.45;;;9.10;99.90;;;;;;5008957;28;20113;-69
2023/04/17 05:37:12;;;;;;;46.42;27.70;;;9.10;99.90;;;;;;5013923;28;20096;-72
2023/04/17 05:39:37;;;;;;;46.55;27.48;;;9.20;99.90;;;;;;5016850;28;20560;-70
2023/04/17 05:42:03;;;;;;;41.83;25.75;;;9.20;99.90;;;;;;5011146;28;20396;-69
2023/04/17 05:44:30;;;;;;;46.78;29.23;;;9.20;99.90;;;;;;5015985;28;20021;-69
2023/04/17 05:46:58;;;;;;;49.70;30.00;;;9.20;99.90;;;;;;5014301;28;20525;-71
2023/04/17 05:49:25;;;;;;;48.33;28.38;;;9.20;99.90;;;;;;5014396;28;20120;-71
2023/04/17 05:51:51;;;;;;;50.13;30.08;;;9.30;99.90;;;;;;5018648;28;20114;-70
2023/04/17 05:54:17;;;;;;;44.08;28.08;;;9.30;99.90;;;;;;5017550;28;20040;-73
2023/04/17 05:56:45;;;;;;;43.47;27.80;;;9.30;99.90;;;;;;5011490;28;20391;-72
2023/04/17 05:59:11;;;;;;;50.25;28.45;;;9.40;99.90;;;;;;5016405;28;20579;-69
2023/04/17 06:01:36;;;;;;;53.53;29.83;;;9.40;99.90;;;;;;5017263;28;20125;-69
2023/04/17 06:04:02;;;;;;;43.35;27.60;;;9.40;99.90;;;;;;5015602;28;20041;-71
2023/04/17 06:06:28;;;;;;;48.58;29.00;;;9.40;99.90;;;;;;5014728;28;20022;-68
2023/04/17 06:08:54;;;;;;;47.00;29.88;;;9.50;99.90;;;;;;5018045;28;20099;-72
2023/04/17 06:11:20;;;;;;;46.90;28.23;;;9.60;99.90;;;;;;5013623;28;20041;-71
2023/04/17 06:13:46;;;;;;;49.13;29.48;;;9.60;99.90;;;;;;4995876;28;20030;-70
2023/04/17 06:16:12;;;;;;;45.70;29.02;;;9.60;99.90;;;;;;5009970;28;20124;-69
2023/04/17 06:18:39;;;;;;;47.58;27.63;;;9.60;99.90;;;;;;5011804;28;20181;-69
2023/04/17 06:21:06;;;;;;;50.25;29.00;;;9.60;99.90;;;;;;5010197;28;20101;-71
2023/04/17 06:23:33;;;;;;;45.22;27.77;;;9.60;99.90;;;;;;5007705;28;20109;-72
2023/04/17 06:25:58;;;;;;;47.92;27.50;;;9.60;99.90;;;;;;5022399;28;20025;-72
2023/04/17 06:28:24;;;;;;;47.05;28.52;;;9.70;99.90;;;;;;5014178;28;20041;-73
2023/04/17 06:30:50;;;;;;;49.38;30.02;;;9.70;99.90;;;;;;5013940;28;20029;-75
2023/04/17 06:33:16;;;;;;;49.33;29.70;;;9.60;99.90;;;;;;5027314;28;20144;-75
2023/04/17 06:35:42;;;;;;;45.10;28.65;;;9.70;99.90;;;;;;5018036;28;20041;-73
2023/04/17 06:38:07;;;;;;;44.25;29.45;;;9.80;99.90;;;;;;5013428;28;20037;-74
2023/04/17 06:40:33;;;;;;;50.00;29.45;;;9.80;99.90;;;;;;5010360;28;20080;-72
2023/04/17 06:42:59;;;;;;;45.85;27.42;;;9.80;99.90;;;;;;5002700;28;20052;-73
2023/04/17 06:45:25;;;;;;;41.35;26.17;;;9.80;99.90;;;;;;5013349;28;20034;-73
2023/04/17 06:47:51;;;;;;;46.33;28.42;;;9.80;99.90;;;;;;5019036;28;20459;-73
2023/04/17 06:50:17;;;;;;;42.08;26.35;;;9.90;99.90;;;;;;5015282;28;20037;-73
2023/04/17 06:52:43;;;;;;;48.90;29.65;;;10.00;99.90;;;;;;5011496;28;20041;-72
2023/04/17 06:55:09;;;;;;;41.70;26.52;;;10.10;99.90;;;;;;5012756;28;20033;-73
2023/04/17 06:57:35;;;;;;;48.67;27.13;;;10.10;99.90;;;;;;5011650;28;20038;-74
2023/04/17 07:00:02;;;;;;;43.97;26.17;;;10.10;99.90;;;;;;5017377;28;20029;-74
2023/04/17 07:02:27;;;;;;;42.65;25.17;;;10.10;99.90;;;;;;5012841;28;20030;-75
2023/04/17 07:04:54;;;;;;;40.90;25.50;;;10.10;99.90;;;;;;5011027;28;20040;-75
2023/04/17 07:07:20;;;;;;;42.97;25.17;;;10.20;99.90;;;;;;5011940;28;20339;-76
2023/04/17 07:09:47;;;;;;;40.45;24.98;;;10.20;99.90;;;;;;5007404;28;20112;-74
2023/04/17 07:12:16;;;;;;;42.88;25.63;;;10.20;99.90;;;;;;5006661;28;20048;-75
2023/04/17 07:14:42;;;;;;;41.90;24.90;;;10.20;99.90;;;;;;5005696;28;20034;-73
2023/04/17 07:17:07;;;;;;;36.67;23.52;;;10.20;99.90;;;;;;5012839;28;20040;-73
2023/04/17 07:19:33;;;;;;;41.95;24.10;;;10.40;99.90;;;;;;5005447;28;20091;-74
2023/04/17 07:21:59;;;;;;;38.45;23.85;;;10.40;99.90;;;;;;5014499;28;20502;-75
2023/04/17 07:24:26;;;;;;;40.33;24.95;;;10.40;99.90;;;;;;5004004;28;20037;-72
2023/04/17 07:26:52;;;;;;;38.40;23.58;;;10.50;99.90;;;;;;5013658;28;20501;-73
2023/04/17 07:29:17;;;;;;;37.38;23.15;;;10.50;99.90;;;;;;5011219;28;20064;-75
2023/04/17 07:31:44;;;;;;;39.13;24.30;;;10.60;99.90;;;;;;5008557;28;20413;-73
2023/04/17 07:34:12;;;;;;;39.78;23.98;;;10.50;99.90;;;;;;5011637;28;20104;-73
2023/04/17 07:36:38;;;;;;;38.65;24.38;;;10.50;99.90;;;;;;5010946;28;20105;-72
2023/04/17 07:39:06;;;;;;;34.90;23.38;;;10.50;99.90;;;;;;5011193;28;20104;-74
2023/04/17 07:41:31;;;;;;;36.78;23.13;;;10.50;99.90;;;;;;5009898;28;20041;-75
2023/04/17 07:43:57;;;;;;;34.83;22.48;;;10.50;99.90;;;;;;4997677;28;20553;-73
2023/04/17 07:46:23;;;;;;;31.30;21.25;;;10.50;99.90;;;;;;5011242;28;20104;-72
2023/04/17 07:48:48;;;;;;;36.08;22.35;;;10.60;99.90;;;;;;5009209;28;20037;-73
2023/04/17 07:51:15;;;;;;;41.15;23.65;;;10.70;99.90;;;;;;5013691;28;20108;-73
2023/04/17 07:53:41;;;;;;;38.42;24.13;;;10.70;99.90;;;;;;5012811;28;20159;-72
2023/04/17 07:56:07;;;;;;;40.75;22.95;;;10.70;99.90;;;;;;5013679;28;20061;-72
2023/04/17 07:58:34;;;;;;;36.10;24.33;;;10.80;99.90;;;;;;5011401;28;20034;-72
2023/04/17 08:01:04;;;;;;;35.00;22.33;;;10.80;99.90;;;;;;5016000;28;20565;-72
2023/04/17 08:03:30;;;;;;;35.15;22.10;;;10.80;99.90;;;;;;5007260;28;20030;-71
2023/04/17 08:05:57;;;;;;;37.78;21.60;;;10.80;99.90;;;;;;5014456;28;20037;-71
2023/04/17 08:08:23;;;;;;;31.92;20.83;;;10.90;99.90;;;;;;5011600;28;20025;-71
2023/04/17 08:10:49;;;;;;;35.25;20.27;;;11.00;99.90;;;;;;5011079;28;20033;-72
2023/04/17 08:13:15;;;;;;;34.00;20.10;;;11.00;99.90;;;;;;5015162;28;20037;-72
2023/04/17 08:15:41;;;;;;;29.80;19.65;;;11.10;99.90;;;;;;5014658;28;20048;-73
2023/04/17 08:18:08;;;;;;;29.60;19.15;;;11.10;99.90;;;;;;5009983;28;21168;-72
2023/04/17 08:20:34;;;;;;;29.95;18.13;;;11.10;99.90;;;;;;5010554;28;20032;-73
2023/04/17 08:23:00;;;;;;;30.77;18.77;;;11.20;99.90;;;;;;5050429;28;20064;-73
2023/04/17 08:25:26;;;;;;;27.50;16.95;;;11.20;99.90;;;;;;5014414;28;20449;-72
2023/04/17 08:27:52;;;;;;;26.38;17.27;;;11.20;99.90;;;;;;5016408;28;20030;-73
2023/04/17 08:30:19;;;;;;;22.67;15.27;;;11.30;99.90;;;;;;5021819;28;20111;-73
2023/04/17 08:32:46;;;;;;;21.83;14.77;;;11.40;99.90;;;;;;5033179;28;20034;-73
2023/04/17 08:35:13;;;;;;;27.70;17.17;;;11.40;99.90;;;;;;5018057;28;20092;-73
2023/04/17 08:37:43;;;;;;;25.73;16.02;;;11.50;99.90;;;;;;5030362;28;20096;-76
2023/04/17 08:40:10;;;;;;;22.77;16.02;;;11.50;99.90;;;;;;5039322;28;20021;-74
2023/04/17 08:42:37;;;;;;;25.00;15.68;;;11.60;99.90;;;;;;5034283;28;20053;-72
2023/04/17 08:45:09;;;;;;;21.88;15.10;;;11.70;99.90;;;;;;5015395;28;20045;-73
2023/04/17 08:47:41;;;;;;;23.23;14.82;;;11.70;99.90;;;;;;5013033;28;20026;-72
2023/04/17 08:50:08;;;;;;;25.92;15.02;;;11.70;99.90;;;;;;5015174;28;20068;-75
2023/04/17 08:52:42;;;;;;;21.25;15.05;;;11.70;99.90;;;;;;5016666;28;20034;-72
2023/04/17 08:55:12;;;;;;;19.80;12.48;;;11.80;99.90;;;;;;5031454;28;20659;-73
2023/04/17 08:58:02;;;;;;;23.88;12.77;;;11.80;99.90;;;;;;5012644;28;20041;-73
2023/04/17 09:00:30;;;;;;;19.05;12.38;;;11.80;99.90;;;;;;5012154;28;20339;-73
2023/04/17 09:02:57;;;;;;;19.15;12.93;;;11.80;99.90;;;;;;5016707;28;20056;-73
2023/04/17 09:05:25;;;;;;;20.92;13.18;;;11.80;99.90;;;;;;5017498;28;20369;-73
2023/04/17 09:08:13;;;;;;;17.77;11.93;;;11.90;99.90;;;;;;5014015;28;20025;-73
2023/04/17 09:10:52;;;;;;;19.48;11.82;;;11.90;99.90;;;;;;5016597;28;20445;-72
2023/04/17 09:13:23;;;;;;;19.15;12.57;;;12.00;99.90;;;;;;5017602;28;20029;-73
2023/04/17 09:16:11;;;;;;;20.65;13.07;;;12.10;99.90;;;;;;5010214;28;20594;-71
2023/04/17 09:18:38;;;;;;;21.50;12.50;;;12.20;99.90;;;;;;5015281;28;20045;-73
2023/04/17 09:21:07;;;;;;;19.98;11.93;;;12.20;99.90;;;;;;4997478;28;20026;-72
2023/04/17 09:23:53;;;;;;;19.00;11.75;;;12.20;99.90;;;;;;5027924;28;20416;-72
2023/04/17 09:26:22;;;;;;;16.17;10.73;;;12.30;99.90;;;;;;5007935;28;20072;-73
2023/04/17 09:29:13;;;;;;;15.05;9.88;;;12.30;99.90;;;;;;5009952;28;20625;-74
2023/04/17 09:31:41;;;;;;;20.60;10.70;;;12.30;99.90;;;;;;5045306;28;20030;-72
2023/04/17 09:34:10;;;;;;;18.45;10.90;;;12.40;99.90;;;;;;5012230;28;20075;-73
2023/04/17 09:36:38;;;;;;;17.83;9.77;;;12.50;99.90;;;;;;5013151;28;20025;-74
2023/04/17 09:39:24;;;;;;;20.48;11.43;;;12.50;99.90;;;;;;5013506;28;20053;-73
2023/04/17 09:42:02;;;;;;;19.27;10.18;;;12.60;99.90;;;;;;4991909;28;20033;-70
2023/04/17 09:44:28;;;;;;;14.73;10.35;;;12.70;99.90;;;;;;5010570;28;20041;-70
2023/04/17 09:46:55;;;;;;;14.50;9.90;;;12.70;99.90;;;;;;5011606;28;20021;-70
2023/04/17 09:49:36;;;;;;;19.15;10.50;;;12.70;99.90;;;;;;5016039;28;20036;-73
2023/04/17 09:52:02;;;;;;;;;;;12.70;99.90;;;;;;5050692;28;20022;-74
2023/04/17 09:54:36;;;;;;;16.00;9.25;;;12.70;99.90;;;;;;5012138;28;19916;-73
2023/04/17 09:57:03;;;;;;;14.68;9.25;;;12.80;99.90;;;;;;5013135;28;20022;-72
2023/04/17 09:59:30;;;;;;;13.95;9.40;;;12.90;99.90;;;;;;5012281;28;20022;-71
2023/04/17 10:01:56;;;;;;;14.15;8.90;;;13.00;99.90;;;;;;5017058;28;20022;-72
2023/04/17 10:04:22;;;;;;;15.93;8.27;;;13.10;99.70;;;;;;5010262;28;20508;-72
2023/04/17 10:06:49;;;;;;;13.90;9.10;;;13.10;99.00;;;;;;5012420;28;20124;-72
2023/04/17 10:09:15;;;;;;;15.38;9.13;;;13.20;98.90;;;;;;5011642;28;20026;-73
2023/04/17 10:11:43;;;;;;;13.98;9.20;;;13.20;98.90;;;;;;4995679;28;20334;-70
2023/04/17 10:14:13;;;;;;;13.02;9.23;;;13.20;99.50;;;;;;5013976;28;20026;-70
2023/04/17 10:16:43;;;;;;;15.97;8.90;;;13.30;99.60;;;;;;5007512;28;20090;-71
2023/04/17 10:19:30;;;;;;;13.32;8.27;;;13.30;99.90;;;;;;5014471;28;20517;-69
2023/04/17 10:22:14;;;;;;;12.73;8.80;;;13.40;99.70;;;;;;5013731;28;20036;-74
2023/04/17 10:24:51;;;;;;;13.43;8.45;;;13.60;98.90;;;;;;5015269;28;20440;-73
2023/04/17 10:27:26;;;;;;;14.20;8.95;;;13.80;99.90;;;;;;5017747;28;20033;-72
2023/04/17 10:29:56;;;;;;;10.35;7.57;;;14.00;99.20;;;;;;5017406;28;20038;-72
2023/04/17 10:32:29;;;;;;;14.73;10.13;;;14.00;96.50;;;;;;5017110;28;20140;-72
2023/04/17 10:35:21;;;;;;;13.82;9.75;;;14.20;98.30;;;;;;5013024;28;20034;-73
2023/04/17 10:37:50;;;;;;;13.77;9.23;;;14.20;98.50;;;;;;5010105;28;20652;-77
2023/04/17 10:40:21;;;;;;;14.57;9.52;;;14.20;98.00;;;;;;5019766;28;20033;-77
2023/04/17 10:43:19;;;;;;;14.10;9.25;;;14.20;96.10;;;;;;5020791;28;20442;-76
2023/04/17 10:46:04;;;;;;;17.40;10.05;;;14.00;95.10;;;;;;4999411;28;20030;-74
2023/04/17 10:48:37;;;;;;;17.90;11.07;;;13.80;96.20;;;;;;5017536;28;20033;-74
2023/04/17 10:51:25;;;;;;;20.35;11.35;;;13.90;97.70;;;;;;5013224;28;20033;-75
2023/04/17 10:53:58;;;;;;;21.75;13.35;;;13.90;98.00;;;;;;5006263;28;20034;-74
2023/04/17 10:56:39;;;;;;;20.40;12.05;;;13.90;99.10;;;;;;5010690;28;20040;-75
2023/04/17 10:59:07;;;;;;;17.55;11.68;;;14.20;99.70;;;;;;5016293;28;20448;-73
2023/04/17 11:01:36;;;;;;;20.23;11.80;;;14.30;99.40;;;;;;5001143;28;20036;-73
2023/04/17 11:04:03;;;;;;;16.75;11.05;;;14.50;99.10;;;;;;5002625;28;20033;-73
2023/04/17 11:06:37;;;;;;;16.60;10.43;;;14.60;96.90;;;;;;5016814;28;20048;-71
2023/04/17 11:09:07;;;;;;;19.23;10.82;;;14.90;96.60;;;;;;5011626;28;20045;-72
2023/04/17 11:11:40;;;;;;;16.58;10.52;;;15.50;95.60;;;;;;4999578;28;20500;-71
2023/04/17 11:14:17;;;;;;;19.33;10.50;;;16.70;93.40;;;;;;5016165;28;20026;-71
2023/04/17 11:16:46;;;;;;;11.95;8.82;;;17.40;87.00;;;;;;5016724;28;20038;-74
2023/04/17 11:19:18;;;;;;;12.90;8.57;;;18.10;78.30;;;;;;5032848;28;20108;-74
2023/04/17 11:21:45;;;;;;;13.27;7.72;;;19.00;72.10;;;;;;5018450;28;20088;-72
2023/04/17 11:24:11;;;;;;;13.57;9.27;;;20.20;66.40;;;;;;5018014;28;20026;-72
2023/04/17 11:26:43;;;;;;;16.45;8.75;;;19.90;60.90;;;;;;5017465;28;20041;-72
2023/04/17 11:29:17;;;;;;;12.18;7.47;;;20.10;58.60;;;;;;5015532;28;20101;-72
2023/04/17 11:31:48;;;;;;;11.77;7.85;;;20.50;54.40;;;;;;5018894;28;20029;-72
2023/04/17 11:34:14;;;;;;;;;;;21.30;52.50;;;;;;5018104;28;20022;-73
2023/04/17 11:36:47;;;;;;;;;;;21.80;47.70;;;;;;5018752;28;19978;-72
2023/04/17 11:39:16;;;;;;;;;;;20.40;50.00;;;;;;5039907;28;20441;-72
2023/04/17 11:41:43;;;;;;;;;;;20.50;49.70;;;;;;5017786;28;20354;-73
2023/04/17 11:44:09;;;;;;;;;;;20.20;47.60;;;;;;5009706;28;19916;-72
2023/04/17 11:46:35;;;;;;;;;;;20.20;48.50;;;;;;5015431;28;20373;-72
2023/04/17 11:49:04;;;;;;;;;;;20.00;48.60;;;;;;4990534;28;20442;-74
2023/04/17 11:51:30;;;;;;;;;;;19.70;49.50;;;;;;5008713;28;20004;-71
2023/04/17 11:53:56;;;;;;;;;;;18.60;48.40;;;;;;5007562;28;19917;-72
2023/04/17 11:56:27;;;;;;;;;;;17.90;48.70;;;;;;5010372;28;19983;-72
2023/04/17 11:58:56;;;;;;;;;;;17.50;49.70;;;;;;5010030;28;20303;-72
2023/04/17 12:01:24;;;;;;;;;;;17.40;49.90;;;;;;5024001;28;19922;-74
2023/04/17 12:03:50;;;;;;;;;;;17.60;49.60;;;;;;5013278;28;19923;-74
2023/04/17 12:06:16;;;;;;;;;;;17.60;47.60;;;;;;5014505;28;19995;-74
2023/04/17 12:08:42;;;;;;;;;;;17.70;48.50;;;;;;5030475;28;20400;-75
2023/04/17 12:11:13;;;;;;;;;;;18.00;47.70;;;;;;5012599;28;19912;-74
2023/04/17 12:13:39;;;;;;;;;;;18.10;48.60;;;;;;5014993;28;19917;-71
2023/04/17 12:16:05;;;;;;;;;;;17.80;47.70;;;;;;5014764;28;19975;-75
2023/04/17 12:18:30;;;;;;;;;;;17.50;49.50;;;;;;5016585;28;20373;-74
2023/04/17 12:20:56;;;;;;;;;;;17.70;49.40;;;;;;5016984;28;19913;-73
2023/04/17 12:23:22;;;;;;;;;;;17.50;48.30;;;;;;5016891;28;19913;-74
2023/04/17 12:25:47;;;;;;;;;;;17.50;50.30;;;;;;5023019;28;20387;-74
2023/04/17 12:28:13;;;;;;;;;;;17.70;49.30;;;;;;5017090;28;20087;-72
2023/04/17 12:30:40;;;;;;;;;;;17.90;49.80;;;;;;5015278;28;19917;-73
2023/04/17 12:33:06;;;;;;;;;;;18.70;49.50;;;;;;5019518;28;19955;-74
2023/04/17 12:35:32;;;;;;;;;;;18.90;50.40;;;;;;5017292;28;20596;-71
2023/04/17 12:37:58;;;;;;;;;;;19.30;48.70;;;;;;5012561;28;19913;-74
2023/04/17 12:40:24;;;;;;;;;;;18.90;47.70;;;;;;5008862;28;19928;-74
2023/04/17 12:42:49;;;;;;;;;;;19.30;48.10;;;;;;5017084;28;19914;-74
2023/04/17 12:45:16;;;;;;;;;;;19.60;47.00;;;;;;5020287;28;19905;-74